Tuesday, January 16, 2018, 5:06 PM GMT
Back to Local

CYYY, Mont Joli, Que.

Location: , , Canada Lat: 48.6
Local Time: 5:06 PM GMT (17:06 GMT) Lon: -68.217
Time Zone: GMT Elev: 157 ft

Show me the last for .
Show Coded

Time T Td Feel RH Dir Speed Gust Alt SLP Vis Weather Sky Remarks
2018-01-16 16:00 7 0 - 71 - Calm - 30.51 30.53 15 OVC025 None
2018-01-16 15:16 3 -2 -4 77 160° 3 - 30.54 30.56 15 OVC026 None
2018-01-16 15:00 3 -2 -9 77 160° 7 - 30.55 30.57 15 -SN OVC026 None
2018-01-16 14:00 1 -4 -10 77 160° 6 - 30.55 30.57 10 -SN OVC024 None
2018-01-16 13:00 1 -4 -12 77 160° 8 - 30.56 30.58 6 -SN OVC022 None
2018-01-16 12:37 1 -4 -11 77 160° 7 - 30.56 30.58 6 -SN OVC022 None
2018-01-16 12:05 1 -4 -10 77 170° 6 - 30.57 30.59 15 -SN OVC022 None
2018-01-16 12:00 1 -4 -10 77 180° 6 - 30.57 30.59 15 OVC020 None
2018-01-16 11:00 0 -4 -10 84 160° 5 - 30.57 30.59 15 BKN018 None
2018-01-16 10:00 0 -6 -12 77 120° 6 - 30.58 30.60 15 FEW022 BKN160 None
2018-01-16 09:00 0 -6 -12 77 150° 6 - 30.60 30.62 15 FEW016 BKN160 None
2018-01-16 08:00 -2 -8 -16 77 170° 7 - 30.62 30.65 15 SCT022 BKN150 None
2018-01-16 07:00 -4 -9 -21 76 160° 10 - 30.67 30.69 15 SCT020 BKN200 None
2018-01-16 06:00 -4 -9 -16 76 160° 6 - 30.68 30.70 15 FEW022 SCT220 None
2018-01-16 05:00 -8 -11 -19 83 150° 5 - 30.69 30.71 15 CLR None
2018-01-16 04:00 -4 -9 -19 76 150° 8 - 30.72 30.75 15 FEW015 None
2018-01-16 03:00 -2 -6 -12 84 160° 5 - 30.75 30.78 15 FEW015 None
2018-01-16 02:00 0 -4 -15 84 130° 8 - 30.79 30.81 15 BKN016 None
2018-01-16 01:00 1 -4 -11 77 140° 7 - 30.81 30.84 15 BKN017 None
2018-01-16 00:00 -2 -6 -16 84 140° 7 - 30.84 30.86 15 BKN016 None
2018-01-15 23:00 -4 -8 -16 83 120° 6 - 30.85 30.87 30 BKN015 None
2018-01-15 22:00 -4 -8 -15 83 130° 5 - 30.84 30.87 30 BKN015 None
2018-01-15 21:00 1 -4 -6 77 80° 3 - 30.86 30.89 30 FEW015 SCT150 BKN190 None
2018-01-15 20:00 1 -4 -6 77 20° 3 - 30.89 30.91 30 FEW015 SCT150 BKN190 None
2018-01-15 19:00 1 -6 - 70 20° 2 - 30.89 30.92 30 FEW015 BKN150 OVC180 None
2018-01-15 18:00 1 -6 -10 70 120° 6 - 30.89 30.92 30 FEW015 OVC150 None

Support USWX by starting your Amazon purchase here.